ADDS METAR Data INFO
IDs: Format: Raw Decoded Include TAF

Data at: 0352 UTC 18 Oct 2017

K3J7 180335Z AUTO 00000KT 10SM CLR 11/07 A3028 RMK AO2
K3J7 180315Z AUTO 00000KT 10SM CLR 11/08 A3027 RMK AO2
K3J7 180255Z AUTO 00000KT 10SM CLR 12/08 A3028 RMK AO2
K3J7 180235Z AUTO 00000KT 10SM CLR 12/07 A3027 RMK AO2
K3J7 180215Z AUTO 00000KT 10SM CLR 12/08 A3026 RMK AO2
K3J7 180155Z AUTO 00000KT 10SM CLR 12/08 A3025 RMK AO2
K3J7 180135Z AUTO 00000KT 10SM CLR 12/08 A3025 RMK AO2
K3J7 180110Z AUTO 00000KT 10SM CLR 13/08 A3025 RMK AO2
K3J7 180055Z AUTO 00000KT 10SM CLR 13/08 A3024 RMK AO2
K3J7 180035Z AUTO 00000KT 10SM CLR 13/09 A3023 RMK AO2
K3J7 180015Z AUTO 00000KT 10SM CLR 13/09 A3024 RMK AO2
K3J7 172355Z AUTO 00000KT 10SM CLR 14/09 A3023 RMK AO2
K3J7 172335Z AUTO 00000KT 10SM CLR 15/08 A3023 RMK AO2
K3J7 172315Z AUTO 00000KT 10SM CLR 15/08 A3023 RMK AO2
K3J7 172255Z AUTO 00000KT 10SM CLR 16/09 A3022 RMK AO2
K3J7 172235Z AUTO 00000KT 10SM CLR 17/08 A3022 RMK AO2
K3J7 172215Z AUTO 00000KT 10SM CLR 18/07 A3022 RMK AO2
K3J7 172155Z AUTO 00000KT 10SM CLR 20/06 A3022 RMK AO2
K3J7 172135Z AUTO 00000KT 10SM CLR 20/06 A3022 RMK AO2
K3J7 172115Z AUTO 00000KT 10SM CLR 21/06 A3022 RMK AO2
K3J7 172055Z AUTO 00000KT 10SM CLR 21/06 A3023 RMK AO2
K3J7 172035Z AUTO 06003KT 10SM CLR 21/05 A3022 RMK AO2
K3J7 172015Z AUTO 03003KT 10SM CLR 21/05 A3023 RMK AO2
K3J7 171955Z AUTO 00000KT 10SM CLR 21/05 A3023 RMK AO2
K3J7 171935Z AUTO 03005KT 10SM CLR 21/05 A3023 RMK AO2
K3J7 171915Z AUTO 00000KT 10SM CLR 21/05 A3023 RMK AO2
K3J7 171855Z AUTO 00000KT 10SM CLR 21/06 A3024 RMK AO2
K3J7 171835Z AUTO 05004KT 10SM CLR 21/05 A3025 RMK AO2
K3J7 171815Z AUTO 07003KT 10SM CLR 21/05 A3025 RMK AO2
K3J7 171755Z AUTO 05004KT 10SM CLR 20/06 A3026 RMK AO2
K3J7 171735Z AUTO 05003KT 10SM CLR 20/06 A3028 RMK AO2
K3J7 171715Z AUTO 01004KT 10SM CLR 20/06 A3029 RMK AO2
K3J7 171655Z AUTO 04004KT 10SM CLR 19/06 A3030 RMK AO2
K3J7 171635Z AUTO 06004KT 10SM CLR 18/06 A3031 RMK AO2
K3J7 171615Z AUTO 05005KT 10SM CLR 18/05 A3032 RMK AO2
K3J7 171555Z AUTO 04004KT 10SM CLR 18/05 A3032 RMK AO2
K3J7 171535Z AUTO 06003KT 10SM CLR 17/05 A3032 RMK AO2
K3J7 171515Z AUTO 08003KT 10SM CLR 17/05 A3033 RMK AO2
K3J7 171455Z AUTO 00000KT 10SM CLR 17/06 A3032 RMK AO2
K3J7 171435Z AUTO 05007KT 340V100 10SM CLR 16/06 A3032 RMK AO2
K3J7 171415Z AUTO 04005KT 10SM CLR 15/07 A3032 RMK AO2
K3J7 171355Z AUTO 04004KT 10SM CLR 14/06 A3031 RMK AO2
K3J7 171335Z AUTO 00000KT 10SM CLR 13/07 A3031 RMK AO2
K3J7 171315Z AUTO 00000KT 10SM CLR 12/07 A3031 RMK AO2
K3J7 171255Z AUTO 00000KT 10SM CLR 11/07 A3029 RMK AO2
K3J7 171235Z AUTO 00000KT 10SM CLR 10/06 A3029 RMK AO2
K3J7 171215Z AUTO 00000KT 10SM CLR 08/06 A3028 RMK AO2
K3J7 171155Z AUTO 00000KT 10SM CLR 08/06 A3027 RMK AO2
K3J7 171135Z AUTO 00000KT 10SM CLR 08/06 A3027 RMK AO2
K3J7 171115Z AUTO 00000KT 10SM CLR 08/06 A3026 RMK AO2
K3J7 171055Z AUTO 00000KT 10SM CLR 08/06 A3025 RMK AO2
K3J7 171035Z AUTO 00000KT 10SM CLR 08/06 A3025 RMK AO2
K3J7 171015Z AUTO 00000KT 10SM CLR 09/06 A3024 RMK AO2
K3J7 170955Z AUTO 00000KT 10SM CLR 10/06 A3023 RMK AO2
K3J7 170935Z AUTO 00000KT 10SM CLR 10/06 A3023 RMK AO2
K3J7 170915Z AUTO 00000KT 10SM CLR 10/07 A3022 RMK AO2
K3J7 170855Z AUTO 00000KT 10SM CLR 10/07 A3022 RMK AO2
K3J7 170835Z AUTO 00000KT 10SM CLR 10/07 A3021 RMK AO2
K3J7 170815Z AUTO 00000KT 10SM CLR 11/07 A3021 RMK AO2
K3J7 170755Z AUTO 00000KT 10SM CLR 11/06 A3021 RMK AO2
K3J7 170735Z AUTO 00000KT 10SM CLR 12/07 A3020 RMK AO2
K3J7 170715Z AUTO 00000KT 10SM CLR 12/07 A3020 RMK AO2
K3J7 170655Z AUTO 00000KT 10SM CLR 12/07 A3021 RMK AO2
K3J7 170635Z AUTO 00000KT 10SM CLR 12/07 A3020 RMK AO2
K3J7 170615Z AUTO 00000KT 10SM CLR 13/07 A3020 RMK AO2
K3J7 170555Z AUTO 00000KT 10SM CLR 13/07 A3020 RMK AO2
K3J7 170535Z AUTO 00000KT 10SM CLR 13/07 A3020 RMK AO2
K3J7 170515Z AUTO 00000KT 10SM CLR 13/07 A3020 RMK AO2
K3J7 170455Z AUTO 02003KT 10SM CLR 13/08 A3020 RMK AO2
K3J7 170435Z AUTO 00000KT 10SM CLR 13/08 A3020 RMK AO2
K3J7 170415Z AUTO 00000KT 10SM CLR 13/08 A3020 RMK AO2
K3J7 170355Z AUTO 00000KT 10SM CLR 14/08 A3020 RMK AO2
K3J7 170335Z AUTO 00000KT 10SM CLR 14/08 A3019 RMK AO2
K3J7 170315Z AUTO 02004KT 10SM CLR 15/08 A3019 RMK AO2
K3J7 170255Z AUTO 02003KT 10SM CLR 15/08 A3018 RMK AO2
K3J7 170235Z AUTO 03003KT 10SM CLR 16/08 A3018 RMK AO2
K3J7 170215Z AUTO 01003KT 10SM CLR 16/09 A3017 RMK AO2 LTG DSNT SE
K3J7 170155Z AUTO 02003KT 10SM CLR 16/09 A3016 RMK AO2
K3J7 170135Z AUTO 00000KT 10SM CLR 17/10 A3015 RMK AO2
K3J7 170115Z AUTO 03004KT 10SM CLR 17/11 A3013 RMK AO2
K3J7 170055Z AUTO 03003KT 10SM CLR 18/11 A3012 RMK AO2
K3J7 170035Z AUTO 02003KT 10SM SCT050 18/12 A3011 RMK AO2
K3J7 170015Z AUTO 00000KT 10SM BKN050 19/12 A3009 RMK AO2
K3J7 162355Z AUTO 00000KT 10SM SCT044 BKN050 20/11 A3008 RMK AO2
K3J7 162335Z AUTO 02003KT 10SM BKN042 BKN050 21/12 A3007 RMK AO2
K3J7 162315Z AUTO 00000KT 10SM OVC040 21/15 A3006 RMK AO2
K3J7 162255Z AUTO 01003KT 10SM OVC038 22/16 A3005 RMK AO2
K3J7 162235Z AUTO 00000KT 10SM OVC036 23/16 A3003 RMK AO2
K3J7 162215Z AUTO 00000KT 10SM OVC036 23/16 A3002 RMK AO2
K3J7 162155Z AUTO 00000KT 10SM BKN041 OVC046 25/16 A3001 RMK AO2
K3J7 162135Z AUTO 30005KT 10SM SCT043 25/15 A3000 RMK AO2
K3J7 162115Z AUTO 31004KT 10SM SCT041 25/15 A3000 RMK AO2
K3J7 162055Z AUTO 32006KT 10SM SCT041 25/15 A3000 RMK AO2
K3J7 162035Z AUTO 30006KT 10SM CLR 26/16 A2999 RMK AO2
K3J7 162015Z AUTO 31005KT 10SM CLR 26/16 A3000 RMK AO2
K3J7 161955Z AUTO 00000KT 10SM CLR 25/16 A2999 RMK AO2
K3J7 161935Z AUTO 00000KT 10SM CLR 24/15 A3000 RMK AO2
K3J7 161915Z AUTO 32003KT 10SM CLR 24/15 A3000 RMK AO2
K3J7 161855Z AUTO 28004KT 10SM CLR 23/15 A3000 RMK AO2
K3J7 161835Z AUTO 28005KT 10SM CLR 25/15 A3000 RMK AO2
K3J7 161815Z AUTO 29003KT 10SM CLR 25/15 A3001 RMK AO2
K3J7 161755Z AUTO 28005KT 10SM CLR 24/16 A3002 RMK AO2
K3J7 161735Z AUTO 26004KT 10SM CLR 24/16 A3003 RMK AO2
K3J7 161715Z AUTO 32004KT 10SM CLR 22/17 A3004 RMK AO2
K3J7 161655Z AUTO 30005KT 10SM CLR 23/16 A3005 RMK AO2
K3J7 161635Z AUTO 28003KT 10SM CLR 23/17 A3005 RMK AO2
K3J7 161615Z AUTO 30004KT 10SM SCT014 22/17 A3005 RMK AO2
K3J7 161555Z AUTO 29006KT 10SM SCT012 21/17 A3005 RMK AO2